Time;durP1;ratioP1;P1;durP2;ratioP2;P2;SDS_P1;SDS_P2;PMS_P1;PMS_P2;Temp;Humidity;BMP_temperature;BMP_pressure;BME280_temperature;BME280_humidity;BME280_pressure;Samples;Min_cycle;Max_cycle;Signal;HPM_P1;HPM_P2
2023/11/26 00:00:12;;;;;;;;;;;2.70;85.40;;;;;;5071249;28;19932;-66
2023/11/26 00:02:45;;;;;;;;;;;2.70;85.50;;;;;;5068934;28;20436;-65
2023/11/26 00:05:12;;;;;;;;;;;2.70;85.40;;;;;;5070786;28;19924;-67
2023/11/26 00:07:45;;;;;;;;;;;2.70;85.50;;;;;;5070623;28;19929;-67
2023/11/26 00:10:18;;;;;;;;;;;2.70;85.70;;;;;;5070788;28;20013;-66
2023/11/26 00:12:52;;;;;;;;;;;2.70;85.70;;;;;;5054325;28;20389;-66
2023/11/26 00:15:26;;;;;;;;;;;2.60;85.80;;;;;;5069687;28;19943;-66
2023/11/26 00:18:00;;;;;;;;;;;2.60;85.60;;;;;;5070663;28;19930;-66
2023/11/26 00:20:33;;;;;;;;;;;2.70;85.80;;;;;;5071176;28;19924;-65
2023/11/26 00:23:06;;;;;;;;;;;2.60;85.80;;;;;;5071939;28;19924;-65
2023/11/26 00:25:33;;;;;;;;;;;2.60;85.70;;;;;;5071348;28;19929;-65
2023/11/26 00:28:06;;;;;;;;;;;2.60;85.70;;;;;;5070274;28;19932;-66
2023/11/26 00:30:42;;;;;;;;;;;2.60;85.70;;;;;;5068579;28;20402;-66
2023/11/26 00:33:18;;;;;;;;;;;2.60;85.70;;;;;;5070523;28;19931;-66
2023/11/26 00:35:51;;;;;;;;;;;2.60;85.70;;;;;;5071358;28;19924;-62
2023/11/26 00:38:27;;;;;;;;;;;2.60;85.50;;;;;;5066496;28;19924;-62
2023/11/26 00:40:55;;;;;;;;;;;2.50;85.60;;;;;;5070552;28;20019;-61
2023/11/26 00:43:28;;;;;;;;;;;2.50;85.50;;;;;;5070490;28;19928;-63
2023/11/26 00:46:03;;;;;;;;;;;2.50;85.50;;;;;;5069480;28;19924;-63
2023/11/26 00:48:43;;;;;;;;;;;2.50;85.40;;;;;;5071377;28;19926;-63
2023/11/26 00:51:19;;;;;;;;;;;2.50;85.30;;;;;;5069383;28;19986;-61
2023/11/26 00:53:52;;;;;;;;;;;2.50;85.20;;;;;;5067786;28;19924;-62
2023/11/26 00:56:26;;;;;;;;;;;2.40;85.20;;;;;;5066702;28;19936;-62
2023/11/26 00:58:59;;;;;;;;;;;2.40;85.20;;;;;;5052185;28;20387;-62
2023/11/26 01:01:34;;;;;;;;;;;2.40;85.00;;;;;;5070526;28;19935;-62
2023/11/26 01:04:07;;;;;;;;;;;2.40;84.90;;;;;;5070099;28;20011;-64
2023/11/26 01:06:40;;;;;;;;;;;2.40;84.90;;;;;;5047954;28;19959;-62
2023/11/26 01:09:13;;;;;;;;;;;2.40;85.00;;;;;;5068621;28;19932;-61
2023/11/26 01:11:47;;;;;;;;;;;2.30;85.10;;;;;;5052210;28;20383;-61
2023/11/26 01:14:20;;;;;;;;;;;2.40;85.00;;;;;;5047223;28;20326;-62
2023/11/26 01:16:55;;;;;;;;;;;2.30;85.10;;;;;;5052381;28;19956;-62
2023/11/26 01:19:21;;;;;;;;;;;2.30;85.00;;;;;;5069721;28;19956;-62
2023/11/26 01:21:55;;;;;;;;;;;2.30;85.10;;;;;;5070196;28;19939;-62
2023/11/26 01:24:31;;;;;;;;;;;2.30;85.00;;;;;;5066048;28;19928;-62
2023/11/26 01:27:05;;;;;;;;;;;2.20;85.20;;;;;;5069993;28;19935;-62
2023/11/26 01:29:38;;;;;;;;;;;2.20;85.30;;;;;;5065272;28;20571;-61
2023/11/26 01:32:13;;;;;;;;;;;2.20;85.10;;;;;;5067694;28;19997;-62
2023/11/26 01:34:46;;;;;;;;;;;2.20;85.20;;;;;;5050633;28;19924;-61
2023/11/26 01:37:19;;;;;;;;;;;2.20;85.30;;;;;;5070931;28;19932;-62
2023/11/26 01:39:52;;;;;;;;;;;2.30;85.10;;;;;;5070038;28;20276;-61
2023/11/26 01:42:25;;;;;;;;;;;2.20;85.10;;;;;;5066901;28;19931;-63
2023/11/26 01:44:58;;;;;;;;;;;2.20;85.00;;;;;;5067071;28;19931;-62
2023/11/26 01:47:33;;;;;;;;;;;2.20;84.90;;;;;;5068426;28;19997;-61
2023/11/26 01:50:08;;;;;;;;;;;2.20;85.00;;;;;;5067639;28;19977;-61
2023/11/26 01:52:41;;;;;;;;;;;2.10;85.10;;;;;;5042287;28;20486;-60
2023/11/26 01:55:15;;;;;;;;;;;2.10;85.20;;;;;;5067826;28;20968;-60
2023/11/26 01:57:48;;;;;;;;;;;2.10;85.10;;;;;;5066275;28;20656;-62
2023/11/26 02:00:22;;;;;;;;;;;2.10;85.00;;;;;;5065402;28;19931;-60
2023/11/26 02:02:57;;;;;;;;;;;2.10;85.00;;;;;;5066261;28;19928;-61
2023/11/26 02:05:30;;;;;;;;;;;2.10;85.00;;;;;;5049724;28;19933;-61
2023/11/26 02:08:03;;;;;;;;;;;2.00;85.00;;;;;;5069288;28;19981;-61
2023/11/26 02:10:36;;;;;;;;;;;2.00;85.00;;;;;;5069258;28;19967;-60
2023/11/26 02:13:09;;;;;;;;;;;2.00;85.00;;;;;;5050889;28;20474;-60
2023/11/26 02:15:42;;;;;;;;;;;2.00;85.00;;;;;;5068618;28;19928;-61
2023/11/26 02:18:19;;;;;;;;;;;2.00;85.00;;;;;;5067360;28;20027;-62
2023/11/26 02:20:52;;;;;;;;;;;2.10;85.00;;;;;;5069367;28;19982;-61
2023/11/26 02:23:25;;;;;;;;;;;2.00;85.20;;;;;;5048425;28;19939;-62
2023/11/26 02:26:00;;;;;;;;;;;2.00;85.30;;;;;;5068502;28;19936;-62
2023/11/26 02:28:33;;;;;;;;;;;2.10;85.40;;;;;;5069734;28;20018;-61
2023/11/26 02:31:06;;;;;;;;;;;2.10;85.30;;;;;;5068404;28;19928;-61
2023/11/26 02:33:40;;;;;;;;;;;2.10;85.40;;;;;;5068513;28;19956;-61
2023/11/26 02:36:13;;;;;;;;;;;2.10;85.50;;;;;;5068373;28;19940;-61
2023/11/26 02:38:46;;;;;;;;;;;2.10;85.50;;;;;;5070151;28;20007;-62
2023/11/26 02:41:21;;;;;;;;;;;2.10;85.70;;;;;;5051473;28;19925;-62
2023/11/26 02:43:54;;;;;;;;;;;2.00;85.80;;;;;;5051055;28;19958;-62
2023/11/26 02:46:27;;;;;;;;;;;2.00;85.90;;;;;;5050037;28;20050;-62
2023/11/26 02:49:00;;;;;;;;;;;2.00;86.00;;;;;;5069299;28;19932;-62
2023/11/26 02:51:33;;;;;;;;;;;2.10;86.10;;;;;;5065515;28;20018;-62
2023/11/26 02:54:08;;;;;;;;;;;2.00;86.20;;;;;;5069337;28;19928;-80
2023/11/26 02:56:43;;;;;;;;;;;2.00;86.30;;;;;;5071059;28;19928;-82
2023/11/26 02:59:16;;;;;;;;;;;2.20;86.30;;;;;;5068008;28;19928;-81
2023/11/26 03:01:49;;;;;;;;;;;2.10;86.40;;;;;;5052161;28;20019;-81
2023/11/26 03:04:23;;;;;;;;;;;2.20;86.60;;;;;;5073796;28;19968;-80
2023/11/26 03:06:58;;;;;;;;;;;2.20;86.60;;;;;;5071042;28;19924;-79
2023/11/26 03:12:56;;;;;;;;;;;2.20;86.50;;;;;;5044130;28;19940;-79
2023/11/26 03:13:06;;;;;;;;;;;2.20;86.70;;;;;;5050341;28;19924;-79
2023/11/26 03:15:48;;;;;;;;;;;2.20;86.80;;;;;;5073092;28;19929;-81
2023/11/26 03:18:21;;;;;;;;;;;2.20;86.80;;;;;;5075964;28;19935;-81
2023/11/26 03:20:56;;;;;;;;;;;2.20;86.80;;;;;;5074793;28;20397;-79
2023/11/26 03:23:30;;;;;;;;;;;2.20;86.80;;;;;;5073226;28;19924;-80
2023/11/26 03:26:03;;;;;;;;;;;2.20;86.80;;;;;;5074694;28;19929;-80
2023/11/26 03:28:38;;;;;;;;;;;2.20;86.70;;;;;;5055409;28;19928;-79
2023/11/26 03:31:12;;;;;;;;;;;2.20;87.00;;;;;;5072572;28;19925;-82
2023/11/26 03:33:45;;;;;;;;;;;2.20;86.90;;;;;;5072420;28;19936;-82
2023/11/26 03:36:18;;;;;;;;;;;2.20;87.00;;;;;;5073548;28;19935;-78
2023/11/26 03:38:52;;;;;;;;;;;2.30;86.90;;;;;;5072426;28;19929;-79
2023/11/26 03:41:26;;;;;;;;;;;2.30;87.00;;;;;;5072721;28;20016;-79
2023/11/26 03:44:01;;;;;;;;;;;2.30;87.00;;;;;;5073145;28;20038;-79
2023/11/26 03:46:35;;;;;;;;;;;2.30;87.10;;;;;;5071725;28;19928;-80
2023/11/26 03:49:08;;;;;;;;;;;2.30;87.20;;;;;;5074643;28;20356;-79
2023/11/26 03:51:41;;;;;;;;;;;2.20;87.20;;;;;;5073224;28;20356;-79
2023/11/26 03:54:14;;;;;;;;;;;2.30;87.20;;;;;;5073926;28;19931;-81
2023/11/26 03:56:47;;;;;;;;;;;2.30;87.10;;;;;;5073809;28;19986;-81
2023/11/26 03:59:22;;;;;;;;;;;2.30;87.30;;;;;;5072605;28;19932;-80
2023/11/26 04:01:55;;;;;;;;;;;2.30;87.30;;;;;;5055689;28;20291;-80
2023/11/26 04:04:28;;;;;;;;;;;2.30;87.20;;;;;;5072972;28;19925;-63
2023/11/26 04:07:01;;;;;;;;;;;2.30;87.40;;;;;;5072477;28;19932;-62
2023/11/26 04:09:35;;;;;;;;;;;2.30;87.30;;;;;;5053578;28;19930;-62
2023/11/26 04:12:09;;;;;;;;;;;2.30;87.40;;;;;;5070789;28;19925;-62
2023/11/26 04:14:54;;;;;;;;;;;2.30;87.40;;;;;;5070009;28;19993;-63
2023/11/26 04:17:27;;;;;;;;;;;2.30;87.40;;;;;;5052469;28;20007;-63
2023/11/26 04:20:00;;;;;;;;;;;2.30;87.40;;;;;;5071212;28;19928;-62
2023/11/26 04:22:33;;;;;;;;;;;2.40;87.30;;;;;;5071636;28;20011;-61
2023/11/26 04:25:07;;;;;;;;;;;2.30;87.40;;;;;;5070806;28;19971;-62
2023/11/26 04:27:40;;;;;;;;;;;2.40;87.30;;;;;;5071218;28;19929;-63
2023/11/26 04:30:15;;;;;;;;;;;2.40;87.50;;;;;;5070344;28;19934;-62
2023/11/26 04:32:48;;;;;;;;;;;2.40;87.40;;;;;;5071054;28;19940;-63
2023/11/26 04:35:21;;;;;;;;;;;2.40;87.30;;;;;;5069769;28;19990;-62
2023/11/26 04:37:55;;;;;;;;;;;2.40;87.40;;;;;;5071160;28;19924;-63
2023/11/26 04:40:28;;;;;;;;;;;2.40;87.30;;;;;;5071680;28;20364;-61
2023/11/26 04:43:02;;;;;;;;;;;2.40;87.50;;;;;;5069244;28;19938;-63
2023/11/26 04:45:37;;;;;;;;;;;2.40;87.60;;;;;;5071103;28;19925;-62
2023/11/26 04:48:10;;;;;;;;;;;2.40;87.50;;;;;;5069832;28;19933;-64
2023/11/26 04:50:44;;;;;;;;;;;2.40;87.70;;;;;;5066713;28;19943;-61
2023/11/26 04:53:17;;;;;;;;;;;2.40;87.50;;;;;;5071369;28;20007;-62
2023/11/26 04:55:50;;;;;;;;;;;2.40;87.70;;;;;;5071931;28;19978;-62
2023/11/26 04:58:23;;;;;;;;;;;2.40;87.60;;;;;;5070406;28;20344;-64
2023/11/26 05:00:58;;;;;;;;;;;2.40;87.60;;;;;;5069300;28;20331;-62
2023/11/26 05:03:31;;;;;;;;;;;2.40;87.60;;;;;;5070792;28;19975;-63
2023/11/26 05:06:05;;;;;;;;;;;2.40;87.70;;;;;;5069517;28;19929;-62
2023/11/26 05:08:38;;;;;;;;;;;2.40;87.60;;;;;;5070582;28;19925;-62
2023/11/26 05:11:11;;;;;;;;;;;2.30;87.60;;;;;;5062710;28;20385;-64
2023/11/26 05:13:45;;;;;;;;;;;2.30;87.80;;;;;;5070587;28;19974;-65
2023/11/26 05:16:20;;;;;;;;;;;2.30;87.70;;;;;;5068796;28;19924;-63
2023/11/26 05:18:53;;;;;;;;;;;2.30;87.70;;;;;;5070821;28;19925;-63
2023/11/26 05:21:27;;;;;;;;;;;2.30;87.80;;;;;;5070517;28;19928;-64
2023/11/26 05:24:00;;;;;;;;;;;2.40;87.80;;;;;;5062098;28;20019;-64
2023/11/26 05:26:33;;;;;;;;;;;2.40;87.90;;;;;;5069695;28;19970;-63
2023/11/26 05:29:08;;;;;;;;;;;2.40;87.70;;;;;;5070857;28;19940;-64
2023/11/26 05:31:43;;;;;;;;;;;2.40;87.80;;;;;;5069317;28;19925;-64
2023/11/26 05:34:16;;;;;;;;;;;2.40;87.70;;;;;;5068363;28;19955;-64
2023/11/26 05:36:50;;;;;;;;;;;2.50;87.70;;;;;;5070915;28;19928;-64
2023/11/26 05:39:23;;;;;;;;;;;2.50;87.70;;;;;;5067743;28;19970;-64
2023/11/26 05:41:57;;;;;;;;;;;2.50;87.70;;;;;;5070178;28;19939;-64
2023/11/26 05:44:30;;;;;;;;;;;2.50;87.70;;;;;;5069737;28;19933;-64
2023/11/26 05:47:05;;;;;;;;;;;2.50;87.70;;;;;;5070409;28;19982;-65
2023/11/26 05:49:39;;;;;;;;;;;2.50;87.70;;;;;;5070762;28;19932;-65
2023/11/26 05:52:11;;;;;;;;;;;2.50;87.80;;;;;;5066600;28;19974;-65
2023/11/26 05:54:44;;;;;;;;;;;2.50;87.70;;;;;;5069163;28;19924;-63
2023/11/26 05:57:17;;;;;;;;;;;2.50;87.80;;;;;;5070802;28;20011;-64
2023/11/26 05:59:51;;;;;;;;;;;2.60;87.70;;;;;;5069732;28;19924;-64
2023/11/26 06:02:26;;;;;;;;;;;2.60;87.70;;;;;;5068395;28;19925;-65
2023/11/26 06:04:59;;;;;;;;;;;2.50;87.60;;;;;;5070116;28;19931;-65
2023/11/26 06:07:32;;;;;;;;;;;2.60;87.70;;;;;;5070369;28;20009;-64
2023/11/26 06:10:09;;;;;;;;;;;2.50;87.70;;;;;;5068827;28;19997;-65
2023/11/26 06:12:42;;;;;;;;;;;2.50;87.80;;;;;;5060556;28;20008;-65
2023/11/26 06:15:15;;;;;;;;;;;2.50;87.70;;;;;;5068012;28;20064;-64
2023/11/26 06:17:50;;;;;;;;;;;2.50;87.70;;;;;;5069516;28;20425;-64
2023/11/26 06:20:23;;;;;;;;;;;2.50;87.70;;;;;;5068520;28;19924;-64
2023/11/26 06:22:59;;;;;;;;;;;2.50;87.70;;;;;;5067393;28;19932;-64
2023/11/26 06:25:32;;;;;;;;;;;2.50;87.60;;;;;;5069965;28;19968;-60
2023/11/26 06:28:05;;;;;;;;;;;2.40;87.50;;;;;;5069150;28;19943;-61
2023/11/26 06:30:38;;;;;;;;;;;2.50;87.40;;;;;;5067214;28;19929;-60
2023/11/26 06:33:13;;;;;;;;;;;2.40;87.30;;;;;;5067486;28;19932;-62
2023/11/26 06:35:46;;;;;;;;;;;2.30;87.40;;;;;;5069144;28;19932;-61
2023/11/26 06:38:20;;;;;;;;;;;2.30;87.40;;;;;;5068150;28;19925;-61
2023/11/26 06:40:53;;;;;;;;;;;2.30;87.50;;;;;;5069231;28;19950;-61
2023/11/26 06:43:26;;;;;;;;;;;2.30;87.70;;;;;;5068336;28;19928;-62
2023/11/26 06:45:59;;;;;;;;;;;2.30;87.60;;;;;;5045380;28;19929;-60
2023/11/26 06:48:40;;;;;;;;;;;2.30;87.50;;;;;;5068863;28;20448;-60
2023/11/26 06:51:20;;;;;;;;;;;2.30;87.60;;;;;;5068507;28;20007;-61
2023/11/26 06:53:54;;;;;;;;;;;2.40;87.60;;;;;;5050047;28;19978;-61
2023/11/26 06:56:27;;;;;;;;;;;2.50;87.60;;;;;;5068759;28;19932;-62
2023/11/26 06:59:00;;;;;;;;;;;2.40;87.60;;;;;;5066874;28;19925;-62
2023/11/26 07:01:33;;;;;;;;;;;2.50;87.60;;;;;;5067578;28;19943;-61
2023/11/26 07:04:08;;;;;;;;;;;2.50;87.60;;;;;;5069685;28;19930;-60
2023/11/26 07:06:42;;;;;;;;;;;2.50;87.60;;;;;;5066521;28;19982;-61
2023/11/26 07:09:15;;;;;;;;;;;2.50;87.70;;;;;;5067832;28;20017;-62
2023/11/26 07:11:49;;;;;;;;;;;2.60;87.70;;;;;;5050906;28;21094;-61
2023/11/26 07:14:22;;;;;;;;;;;2.60;87.60;;;;;;5056032;28;20019;-61
2023/11/26 07:16:55;;;;;;;;;;;2.60;87.60;;;;;;5067874;28;19940;-60
2023/11/26 07:19:30;;;;;;;;;;;2.60;87.70;;;;;;5068213;28;19958;-61
2023/11/26 07:22:02;;;;;;;;;;;2.50;87.60;;;;;;5068999;28;19939;-61
2023/11/26 07:24:35;;;;;;;;;;;2.50;87.60;;;;;;5069647;28;19928;-62
2023/11/26 07:27:15;;;;;;;;;;;2.60;87.70;;;;;;5067446;28;20019;-61
2023/11/26 07:29:48;;;;;;;;;;;2.50;87.60;;;;;;5067855;28;20011;-60
2023/11/26 07:32:21;;;;;;;;;;;2.60;87.70;;;;;;5066220;28;19928;-61
2023/11/26 07:34:56;;;;;;;;;;;2.70;87.70;;;;;;5068565;28;19924;-62
2023/11/26 07:37:30;;;;;;;;;;;2.70;87.80;;;;;;5067424;28;20007;-61
2023/11/26 07:40:05;;;;;;;;;;;2.70;87.90;;;;;;5068060;28;19978;-61
2023/11/26 07:42:40;;;;;;;;;;;2.60;88.00;;;;;;5066919;28;20375;-61
2023/11/26 07:45:13;;;;;;;;;;;2.70;88.00;;;;;;5067345;28;19924;-61
2023/11/26 07:47:46;;;;;;;;;;;2.70;88.10;;;;;;5068340;28;19925;-61
2023/11/26 07:50:22;;;;;;;;;;;2.70;88.00;;;;;;5072383;28;19932;-61
2023/11/26 07:52:54;;;;;;;;;;;2.80;87.90;;;;;;5072434;28;20023;-62
2023/11/26 07:55:27;;;;;;;;;;;2.70;88.00;;;;;;5067698;28;20010;-59
2023/11/26 07:58:00;;;;;;;;;;;2.80;87.80;;;;;;5069997;28;19952;-62
2023/11/26 08:00:33;;;;;;;;;;;2.80;87.80;;;;;;5070782;28;20426;-61
2023/11/26 08:03:07;;;;;;;;;;;2.70;87.90;;;;;;5071713;28;20409;-61
2023/11/26 08:05:43;;;;;;;;;;;2.70;88.00;;;;;;5070991;28;19924;-61
2023/11/26 08:08:20;;;;;;;;;;;2.70;88.10;;;;;;5070931;28;19952;-61
2023/11/26 08:10:54;;;;;;;;;;;2.80;88.00;;;;;;5071905;28;19935;-62
2023/11/26 08:13:28;;;;;;;;;;;2.70;88.00;;;;;;5068620;28;19936;-61
2023/11/26 08:16:07;;;;;;;;;;;2.70;88.20;;;;;;5070101;28;19925;-61
2023/11/26 08:18:41;;;;;;;;;;;2.80;88.30;;;;;;5071920;28;20302;-63
2023/11/26 08:21:17;;;;;;;;;;;2.80;88.10;;;;;;5071717;28;20456;-62
2023/11/26 08:23:54;;;;;;;;;;;2.90;88.10;;;;;;5072762;28;20006;-62
2023/11/26 08:26:32;;;;;;;;;;;2.90;88.10;;;;;;5052447;28;19924;-61
2023/11/26 08:29:09;;;;;;;;;;;3.00;87.80;;;;;;5071736;28;19982;-60
2023/11/26 08:31:44;;;;;;;;;;;3.00;87.80;;;;;;5070125;28;19931;-60
2023/11/26 08:34:18;;;;;;;;;;;2.90;88.00;;;;;;5054204;28;19985;-62
2023/11/26 08:36:52;;;;;;;;;;;3.00;88.20;;;;;;5072252;28;19928;-62
2023/11/26 08:39:27;;;;;;;;;;;3.00;88.30;;;;;;5070671;28;19952;-61
2023/11/26 08:42:00;;;;;;;;;;;3.00;88.10;;;;;;5071227;28;20005;-61
2023/11/26 08:44:34;;;;;;;;;;;3.10;88.10;;;;;;5071158;28;19935;-73
2023/11/26 08:47:10;;;;;;;;;;;3.20;88.00;;;;;;5071182;28;19931;-74
2023/11/26 08:49:44;;;;;;;;;;;3.30;88.00;;;;;;5069993;28;19925;-73
2023/11/26 08:52:19;;;;;;;;;;;3.30;88.10;;;;;;5071403;28;19932;-73
2023/11/26 08:54:52;;;;;;;;;;;3.40;88.10;;;;;;5070764;28;20023;-72
2023/11/26 08:57:26;;;;;;;;;;;3.40;87.90;;;;;;5070650;28;19997;-73
2023/11/26 08:59:59;;;;;;;;;;;3.50;87.90;;;;;;5069092;28;19950;-73
2023/11/26 09:02:32;;;;;;;;;;;3.50;87.90;;;;;;5071702;28;20010;-71
2023/11/26 09:05:08;;;;;;;;;;;3.50;87.80;;;;;;5070747;28;19924;-72
2023/11/26 09:07:44;;;;;;;;;;;3.60;87.80;;;;;;5071196;28;19930;-74
2023/11/26 09:10:19;;;;;;;;;;;3.60;88.10;;;;;;5067687;28;20623;-73
2023/11/26 09:12:51;;;;;;;;;;;3.60;88.00;;;;;;5072363;28;20428;-75
2023/11/26 09:15:26;;;;;;;;;;;3.60;88.00;;;;;;5067772;28;22986;-73
2023/11/26 09:17:59;;;;;;;;;;;3.60;88.00;;;;;;5070365;28;19978;-73
2023/11/26 09:20:32;;;;;;;;;;;3.70;88.20;;;;;;5069717;28;19932;-74
2023/11/26 09:23:07;;;;;;;;;;;3.70;88.40;;;;;;5071978;28;20445;-73
2023/11/26 09:25:40;;;;;;;;;;;3.70;88.30;;;;;;5071138;28;19925;-73
2023/11/26 09:28:14;;;;;;;;;;;3.80;88.60;;;;;;5070610;28;20007;-73
2023/11/26 09:30:47;;;;;;;;;;;3.90;88.40;;;;;;5069496;28;20367;-73
2023/11/26 09:33:14;;;;;;;;;;;3.70;88.30;;;;;;5070893;28;19925;-74
2023/11/26 09:35:47;;;;;;;;;;;3.70;88.40;;;;;;5072519;28;19964;-73
2023/11/26 09:38:23;;;;;;;;;;;3.80;88.50;;;;;;5071686;28;19933;-73
2023/11/26 09:40:55;;;;;;;;;;;3.80;88.40;;;;;;5069425;28;19947;-73
2023/11/26 09:43:31;;;;;;;;;;;3.90;88.50;;;;;;5072013;28;19935;-74
2023/11/26 09:46:05;;;;;;;;;;;3.90;88.60;;;;;;5070547;28;19924;-73
2023/11/26 09:48:38;;;;;;;;;;;3.90;88.60;;;;;;5071305;28;19925;-73
2023/11/26 09:51:11;;;;;;;;;;;4.00;88.60;;;;;;5070668;28;19932;-71
2023/11/26 09:53:46;;;;;;;;;;;4.00;88.60;;;;;;5070282;28;20393;-61
2023/11/26 09:56:19;;;;;;;;;;;4.00;88.70;;;;;;5068795;28;19928;-62
2023/11/26 09:58:46;;;;;;;;;;;4.00;88.80;;;;;;5069471;28;20006;-60
2023/11/26 10:01:19;;;;;;;;;;;4.00;89.00;;;;;;5069905;28;19935;-61
2023/11/26 10:03:59;;;;;;;;;;;4.10;89.10;;;;;;5069682;28;19932;-61
2023/11/26 10:06:33;;;;;;;;;;;4.20;89.00;;;;;;5071158;28;20402;-61
2023/11/26 10:09:17;;;;;;;;;;;4.20;88.90;;;;;;5070704;28;19924;-62
2023/11/26 10:11:51;;;;;;;;;;;4.20;88.70;;;;;;5071063;28;19932;-61
2023/11/26 10:14:24;;;;;;;;;;;4.20;88.90;;;;;;5067173;28;19929;-60
2023/11/26 10:17:08;;;;;;;;;;;4.30;89.00;;;;;;5068596;28;20074;-62
2023/11/26 10:19:40;;;;;;;;;;;4.30;89.00;;;;;;5069238;28;20025;-60
2023/11/26 10:22:13;;;;;;;;;;;4.30;88.90;;;;;;5066403;28;19932;-61
2023/11/26 10:24:48;;;;;;;;;;;4.40;88.90;;;;;;5068168;28;19928;-62
2023/11/26 10:27:21;;;;;;;;;;;4.40;88.90;;;;;;5070138;28;19928;-62
2023/11/26 10:29:54;;;;;;;;;;;4.40;89.20;;;;;;5069153;28;19925;-60
2023/11/26 10:32:27;;;;;;;;;;;4.40;89.10;;;;;;5069119;28;19937;-62
2023/11/26 10:35:04;;;;;;;;;;;4.40;89.20;;;;;;5069558;28;19937;-61
2023/11/26 10:37:37;;;;;;;;;;;4.40;89.00;;;;;;5070061;28;20011;-62
2023/11/26 10:40:11;;;;;;;;;;;4.50;89.20;;;;;;5066553;28;19962;-61
2023/11/26 10:42:45;;;;;;;;;;;4.50;89.20;;;;;;5069137;28;19935;-61
2023/11/26 10:45:19;;;;;;;;;;;4.50;89.00;;;;;;5069071;28;19932;-62
2023/11/26 10:47:53;;;;;;;;;;;4.50;89.10;;;;;;5070064;28;19936;-62
2023/11/26 10:50:28;;;;;;;;;;;4.60;89.10;;;;;;5068323;28;19959;-61
2023/11/26 10:53:04;;;;;;;;;;;4.60;89.00;;;;;;5066737;28;20045;-61
2023/11/26 10:55:40;;;;;;;;;;;4.60;89.30;;;;;;5068391;28;20011;-61
2023/11/26 10:58:17;;;;;;;;;;;4.60;89.20;;;;;;5069198;28;19978;-61
2023/11/26 11:00:53;;;;;;;;;;;4.60;89.20;;;;;;5069428;28;19928;-62
2023/11/26 11:03:27;;;;;;;;;;;4.70;89.30;;;;;;5067770;28;20398;-62
2023/11/26 11:06:02;;;;;;;;;;;4.70;89.30;;;;;;5069789;28;19969;-61
2023/11/26 11:08:35;;;;;;;;;;;4.80;89.20;;;;;;5068195;28;19935;-60
2023/11/26 11:11:19;;;;;;;;;;;4.80;88.90;;;;;;5068940;28;19925;-59
2023/11/26 11:13:53;;;;;;;;;;;4.90;89.00;;;;;;5069303;28;19928;-60
2023/11/26 11:16:26;;;;;;;;;;;4.90;89.10;;;;;;5066746;28;20677;-61
2023/11/26 11:19:00;;;;;;;;;;;4.90;88.90;;;;;;5069971;28;19932;-61
2023/11/26 11:21:47;;;;;;;;;;;5.00;88.90;;;;;;5069515;28;19931;-60
2023/11/26 11:24:20;;;;;;;;;;;5.00;89.00;;;;;;5072732;28;20084;-61
2023/11/26 11:26:55;;;;;;;;;;;5.00;88.90;;;;;;5073475;28;20379;-61
2023/11/26 11:29:31;;;;;;;;;;;5.00;88.90;;;;;;5072134;28;19972;-61
2023/11/26 11:32:05;;;;;;;;;;;5.10;88.90;;;;;;5051613;28;19950;-59
2023/11/26 11:34:38;;;;;;;;;;;5.10;88.90;;;;;;5070606;28;20027;-60
2023/11/26 11:37:12;;;;;;;;;;;5.10;88.70;;;;;;5072250;28;19925;-61
2023/11/26 11:39:46;;;;;;;;;;;5.10;88.90;;;;;;5069830;28;19936;-60
2023/11/26 11:42:28;;;;;;;;;;;5.10;88.90;;;;;;5071645;28;19932;-61
2023/11/26 11:45:16;;;;;;;;;;;5.10;88.70;;;;;;5071516;28;20016;-60
2023/11/26 11:47:49;;;;;;;;;;;5.20;88.70;;;;;;5071585;28;19935;-61
2023/11/26 11:50:30;;;;;;;;;;;5.20;88.70;;;;;;5071460;28;19929;-60
2023/11/26 11:53:05;;;;;;;;;;;5.20;88.60;;;;;;5070577;28;19985;-61
2023/11/26 11:55:46;;;;;;;;;;;5.20;88.60;;;;;;5070907;28;19982;-61
2023/11/26 11:58:21;;;;;;;;;;;5.20;88.60;;;;;;5071508;28;20460;-60
2023/11/26 12:00:57;;;;;;;;;;;5.30;88.60;;;;;;5071286;28;19929;-61
2023/11/26 12:03:30;;;;;;;;;;;5.20;88.60;;;;;;5071685;28;19929;-60
2023/11/26 12:06:13;;;;;;;;;;;5.20;88.70;;;;;;5071601;28;20346;-61
2023/11/26 12:08:54;;;;;;;;;;;5.20;88.80;;;;;;5066970;28;19935;-61
2023/11/26 12:11:28;;;;;;;;;;;5.30;88.70;;;;;;5071151;28;19932;-61
2023/11/26 12:14:02;;;;;;;;;;;5.30;88.70;;;;;;5071822;28;19939;-63
2023/11/26 12:16:29;;;;;;;;;;;5.30;88.60;;;;;;5070623;28;20042;-62
2023/11/26 12:19:03;;;;;;;;;;;5.30;88.70;;;;;;5069357;28;19924;-62
2023/11/26 12:21:36;;;;;;;;;;;5.30;88.70;;;;;;5071511;28;19970;-61
2023/11/26 12:24:19;;;;;;;;;;;5.40;88.60;;;;;;5071037;28;19932;-62
2023/11/26 12:26:52;;;;;;;;;;;5.50;88.40;;;;;;5071346;28;19924;-62
2023/11/26 12:29:26;;;;;;;;;;;5.50;88.50;;;;;;5070942;28;19924;-62
2023/11/26 12:32:05;;;;;;;;;;;5.40;88.50;;;;;;5070900;28;19978;-62
2023/11/26 12:34:38;;;;;;;;;;;5.40;88.60;;;;;;5070117;28;19934;-61
2023/11/26 12:37:12;;;;;;;;;;;5.40;88.60;;;;;;5071379;28;19947;-64
2023/11/26 12:39:45;;;;;;;;;;;5.30;88.70;;;;;;5068380;28;19925;-62
2023/11/26 12:42:18;;;;;;;;;;;5.30;88.70;;;;;;5070575;28;19974;-61
2023/11/26 12:44:53;;;;;;;;;;;5.30;88.70;;;;;;5072375;28;19971;-63
2023/11/26 12:47:27;;;;;;;;;;;5.40;88.70;;;;;;5070582;28;19928;-63
2023/11/26 12:50:02;;;;;;;;;;;5.30;88.80;;;;;;5070705;28;19978;-62
2023/11/26 12:52:46;;;;;;;;;;;5.30;88.70;;;;;;5071068;28;19928;-62
2023/11/26 12:55:20;;;;;;;;;;;5.30;88.70;;;;;;5069666;28;19947;-64
2023/11/26 12:57:54;;;;;;;;;;;5.30;88.80;;;;;;5070601;28;19946;-62
2023/11/26 13:00:38;;;;;;;;;;;5.30;88.80;;;;;;5070465;28;19931;-64
2023/11/26 13:03:14;;;;;;;;;;;5.30;88.80;;;;;;5070609;28;19972;-66
2023/11/26 13:05:48;;;;;;;;;;;5.30;88.80;;;;;;5070600;28;19928;-62
2023/11/26 13:08:21;;;;;;;;;;;5.30;88.80;;;;;;5070247;28;20301;-62
2023/11/26 13:10:57;;;;;;;;;;;5.30;88.80;;;;;;5071852;28;20387;-62
2023/11/26 13:13:32;;;;;;;;;;;5.30;88.80;;;;;;5070865;28;19940;-62
2023/11/26 13:16:07;;;;;;;;;;;5.40;88.50;;;;;;5071485;28;19935;-62
2023/11/26 13:18:41;;;;;;;;;;;5.30;88.70;;;;;;5068722;28;19990;-63
2023/11/26 13:21:14;;;;;;;;;;;5.40;88.60;;;;;;5065420;28;20023;-63
2023/11/26 13:23:40;;;;;;;;;;;5.40;88.70;;;;;;5069327;28;19931;-62
2023/11/26 13:26:14;;;;;;;;;;;5.30;88.70;;;;;;5069125;28;19924;-60
2023/11/26 13:28:46;;;;;;;;;;;5.40;88.70;;;;;;5070395;28;19931;-61
2023/11/26 13:31:21;;;;;;;;;;;5.30;88.70;;;;;;5069286;28;20045;-62
2023/11/26 13:33:57;;;;;;;;;;;5.40;88.70;;;;;;5068870;28;19925;-61
2023/11/26 13:36:32;;;;;;;;;;;5.40;88.60;;;;;;5069597;28;20715;-62
2023/11/26 13:39:06;;;;;;;;;;;5.30;88.70;;;;;;5061986;28;20088;-62
2023/11/26 13:41:40;;;;;;;;;;;5.30;88.90;;;;;;5067975;28;20340;-62
2023/11/26 13:44:14;;;;;;;;;;;5.30;88.80;;;;;;5068477;28;19971;-62
2023/11/26 13:46:51;;;;;;;;;;;5.30;88.80;;;;;;5070085;28;19924;-62
2023/11/26 13:49:25;;;;;;;;;;;5.30;88.80;;;;;;5064059;28;19924;-61
2023/11/26 13:52:00;;;;;;;;;;;5.30;88.70;;;;;;5046995;28;19939;-62
2023/11/26 13:54:32;;;;;;;;;;;5.30;88.80;;;;;;5069047;28;19936;-61
2023/11/26 13:57:06;;;;;;;;;;;5.30;88.70;;;;;;5069511;28;19928;-61
2023/11/26 13:59:39;;;;;;;;;;;5.30;88.90;;;;;;5070841;28;19928;-60
2023/11/26 14:02:13;;;;;;;;;;;5.30;89.00;;;;;;5067090;28;19929;-60
2023/11/26 14:04:53;;;;;;;;;;;5.30;88.90;;;;;;5070117;28;19931;-61
2023/11/26 14:07:27;;;;;;;;;;;5.40;88.90;;;;;;5070250;28;19967;-61
2023/11/26 14:10:00;;;;;;;;;;;5.40;89.00;;;;;;5069609;28;20376;-60
2023/11/26 14:12:34;;;;;;;;;;;5.50;89.00;;;;;;5070277;28;20007;-61
2023/11/26 14:15:07;;;;;;;;;;;5.40;88.90;;;;;;5068303;28;20482;-61
2023/11/26 14:17:42;;;;;;;;;;;5.40;88.90;;;;;;5065392;28;19924;-62
2023/11/26 14:20:16;;;;;;;;;;;5.40;88.90;;;;;;5063823;28;20383;-62
2023/11/26 14:22:51;;;;;;;;;;;5.40;89.10;;;;;;5069444;28;19931;-61
2023/11/26 14:25:29;;;;;;;;;;;5.50;88.90;;;;;;5069266;28;20031;-60
2023/11/26 14:28:03;;;;;;;;;;;5.40;89.00;;;;;;5068783;28;20371;-62
2023/11/26 14:30:36;;;;;;;;;;;5.40;89.00;;;;;;5069270;28;19928;-60
2023/11/26 14:33:11;;;;;;;;;;;5.40;89.20;;;;;;5067838;28;19935;-61
2023/11/26 14:35:45;;;;;;;;;;;5.40;89.10;;;;;;5063910;28;20476;-61
2023/11/26 14:38:19;;;;;;;;;;;5.40;89.20;;;;;;5067541;28;19928;-60
2023/11/26 14:40:55;;;;;;;;;;;5.40;89.20;;;;;;5069618;28;19925;-60
2023/11/26 14:43:35;;;;;;;;;;;5.40;89.30;;;;;;5070247;28;19931;-60
2023/11/26 14:46:09;;;;;;;;;;;5.40;89.40;;;;;;5068162;28;19924;-63
2023/11/26 14:48:44;;;;;;;;;;;5.40;89.30;;;;;;5068672;28;19925;-62
2023/11/26 14:51:18;;;;;;;;;;;5.40;89.30;;;;;;5063900;28;19936;-61
2023/11/26 14:53:51;;;;;;;;;;;5.40;89.30;;;;;;5066354;28;19932;-63
2023/11/26 14:56:24;;;;;;;;;;;5.40;89.40;;;;;;5043751;28;20025;-62
2023/11/26 14:58:57;;;;;;;;;;;5.30;89.40;;;;;;5072032;28;19935;-61
2023/11/26 15:01:31;;;;;;;;;;;5.30;89.40;;;;;;5072935;28;19939;-62
2023/11/26 15:04:05;;;;;;;;;;;5.40;89.40;;;;;;5074200;28;19974;-61
2023/11/26 15:06:39;;;;;;;;;;;5.40;89.40;;;;;;5073709;28;20011;-63
2023/11/26 15:09:12;;;;;;;;;;;5.40;89.40;;;;;;5070133;28;19932;-62
2023/11/26 15:11:45;;;;;;;;;;;5.30;89.50;;;;;;5073013;28;19935;-62